createdAt,value
2023-03-26T00:00:32.292Z,0.00
2023-03-26T00:01:36.839Z,0.00
2023-03-26T00:02:41.291Z,0.00
2023-03-26T00:03:45.212Z,0.25
2023-03-26T00:04:49.119Z,0.50
2023-03-26T00:05:53.270Z,0.50
2023-03-26T00:06:57.537Z,0.75
2023-03-26T00:08:01.528Z,0.50
2023-03-26T00:09:05.430Z,0.00
2023-03-26T00:10:09.536Z,0.00
2023-03-26T00:11:13.634Z,0.00
2023-03-26T00:12:17.840Z,0.00
2023-03-26T00:13:22.080Z,0.00
2023-03-26T00:14:26.251Z,0.00
2023-03-26T00:15:30.044Z,0.00
2023-03-26T00:16:34.319Z,0.25
2023-03-26T00:17:38.496Z,0.50
2023-03-26T00:18:42.486Z,0.00
2023-03-26T00:19:46.355Z,0.00
2023-03-26T00:20:50.875Z,0.00
2023-03-26T00:21:55.386Z,0.00
2023-03-26T00:22:59.696Z,0.00
2023-03-26T00:24:03.712Z,0.00
2023-03-26T00:25:08.000Z,0.00
2023-03-26T00:26:12.422Z,0.00
2023-03-26T00:27:16.103Z,1.00
2023-03-26T00:28:20.072Z,0.50
2023-03-26T00:29:24.314Z,0.50
2023-03-26T00:30:28.249Z,1.00
2023-03-26T00:31:32.117Z,0.00
2023-03-26T00:32:35.981Z,0.75
2023-03-26T00:33:40.008Z,0.50
2023-03-26T00:34:44.006Z,0.25
2023-03-26T00:35:47.922Z,1.00
2023-03-26T00:36:52.218Z,0.00
2023-03-26T00:37:56.235Z,0.00
2023-03-26T00:39:00.460Z,0.00
2023-03-26T00:40:04.844Z,0.00
2023-03-26T00:41:09.052Z,0.00
2023-03-26T00:42:13.356Z,0.50
2023-03-26T00:43:17.668Z,1.00
2023-03-26T00:44:21.521Z,0.50
2023-03-26T00:45:29.970Z,1.00
2023-03-26T00:46:34.348Z,1.00
2023-03-26T00:47:38.683Z,0.00
2023-03-26T00:48:45.612Z,0.00
2023-03-26T00:49:48.229Z,0.00
2023-03-26T00:50:52.321Z,0.00
2023-03-26T00:51:56.142Z,0.50
2023-03-26T00:52:59.896Z,0.00
2023-03-26T00:54:03.822Z,0.00
2023-03-26T00:55:07.642Z,0.00
2023-03-26T00:56:11.616Z,0.50
2023-03-26T00:57:25.704Z,1.75
2023-03-26T00:58:20.642Z,0.50
2023-03-26T00:59:24.541Z,1.00
2023-03-26T01:00:28.437Z,2.00
2023-03-26T01:01:32.647Z,2.00
2023-03-26T01:02:36.722Z,1.50
2023-03-26T01:03:40.856Z,0.50
2023-03-26T01:04:45.746Z,0.00
2023-03-26T01:05:49.874Z,0.25
2023-03-26T01:06:53.565Z,0.00
2023-03-26T01:07:57.566Z,0.50
2023-03-26T01:09:01.387Z,0.00
2023-03-26T01:10:06.921Z,0.25
2023-03-26T01:11:11.109Z,0.75
2023-03-26T01:12:15.223Z,0.00
2023-03-26T01:13:19.523Z,0.00
2023-03-26T01:14:23.348Z,0.50
2023-03-26T01:15:27.310Z,0.50
2023-03-26T01:16:31.427Z,0.00
2023-03-26T01:17:35.547Z,0.50
2023-03-26T01:18:39.418Z,0.75
2023-03-26T01:19:43.422Z,0.25
2023-03-26T01:20:47.626Z,0.00
2023-03-26T01:21:51.951Z,0.00
2023-03-26T01:22:56.245Z,0.25
2023-03-26T01:24:00.108Z,0.50
2023-03-26T01:25:04.346Z,0.50
2023-03-26T01:26:08.345Z,1.00
2023-03-26T01:27:12.460Z,0.00
2023-03-26T01:28:16.572Z,0.00
2023-03-26T01:29:20.556Z,0.00
2023-03-26T01:30:24.168Z,0.00
2023-03-26T01:31:28.257Z,0.50
2023-03-26T01:32:32.409Z,0.50
2023-03-26T01:33:36.756Z,0.25
2023-03-26T01:34:40.595Z,0.00
2023-03-26T01:35:44.878Z,0.00
2023-03-26T01:36:48.877Z,0.00
2023-03-26T01:37:53.081Z,0.00
2023-03-26T01:38:56.992Z,0.00
2023-03-26T01:40:00.772Z,0.00
2023-03-26T01:41:04.566Z,0.50
2023-03-26T01:42:08.468Z,0.50
2023-03-26T01:43:12.571Z,0.00
2023-03-26T01:44:18.270Z,0.50
2023-03-26T01:45:22.110Z,0.50
2023-03-26T01:46:25.959Z,0.50
2023-03-26T01:47:30.034Z,0.75
2023-03-26T01:48:33.909Z,0.25
2023-03-26T01:49:37.914Z,0.25
2023-03-26T01:50:41.587Z,0.25
2023-03-26T01:51:45.397Z,0.75
2023-03-26T01:52:49.099Z,0.00
2023-03-26T01:53:53.004Z,0.00
2023-03-26T01:54:57.108Z,0.00
2023-03-26T01:56:01.194Z,0.00
2023-03-26T01:57:05.167Z,0.50
2023-03-26T01:58:09.093Z,0.00
2023-03-26T01:59:12.893Z,0.00
2023-03-26T02:00:16.907Z,0.25
2023-03-26T02:01:20.930Z,0.00
2023-03-26T02:02:25.352Z,0.00
2023-03-26T02:03:29.544Z,0.00
2023-03-26T02:04:33.935Z,0.50
2023-03-26T02:05:38.242Z,0.50
2023-03-26T02:06:42.575Z,0.00
2023-03-26T02:07:46.397Z,0.00
2023-03-26T02:08:50.436Z,0.00
2023-03-26T02:09:54.644Z,0.00
2023-03-26T02:10:58.862Z,0.25
2023-03-26T02:12:03.053Z,0.50
2023-03-26T02:13:07.258Z,1.00
2023-03-26T02:14:11.463Z,0.50
2023-03-26T02:15:15.241Z,0.50
2023-03-26T02:16:19.190Z,0.25
2023-03-26T02:17:23.294Z,0.00
2023-03-26T02:18:27.380Z,0.50
2023-03-26T02:19:31.475Z,0.50
2023-03-26T02:20:35.676Z,0.00
2023-03-26T02:21:39.573Z,0.50
2023-03-26T02:22:43.576Z,0.50
2023-03-26T02:23:47.779Z,0.50
2023-03-26T02:24:51.794Z,0.50
2023-03-26T02:25:56.006Z,0.50
2023-03-26T02:27:00.502Z,0.00
2023-03-26T02:28:04.397Z,0.00
2023-03-26T02:29:08.315Z,0.25
2023-03-26T02:30:12.437Z,1.50
2023-03-26T02:31:16.177Z,0.50
2023-03-26T02:32:19.998Z,0.00
2023-03-26T02:33:24.002Z,0.00
2023-03-26T02:34:28.201Z,0.00
2023-03-26T02:35:32.087Z,0.00
2023-03-26T02:36:36.589Z,0.50
2023-03-26T02:37:40.615Z,0.50
2023-03-26T02:38:44.826Z,1.00
2023-03-26T02:39:48.832Z,0.75
2023-03-26T02:40:53.937Z,0.50
2023-03-26T02:41:57.844Z,0.50
2023-03-26T02:43:01.525Z,0.00
2023-03-26T02:44:05.445Z,1.00
2023-03-26T02:45:09.335Z,0.75
2023-03-26T02:46:13.474Z,0.75
2023-03-26T02:47:17.337Z,0.00
2023-03-26T02:48:21.235Z,0.00
2023-03-26T02:49:24.956Z,0.50
2023-03-26T02:50:28.947Z,0.50
2023-03-26T02:51:32.830Z,0.50
2023-03-26T02:52:36.633Z,1.00
2023-03-26T02:53:40.526Z,0.00
2023-03-26T02:54:44.405Z,0.50
2023-03-26T02:55:48.092Z,1.00
2023-03-26T02:56:51.961Z,1.00
2023-03-26T02:57:55.673Z,1.00
2023-03-26T02:58:59.403Z,0.50
2023-03-26T03:00:03.201Z,0.00
2023-03-26T03:01:07.059Z,0.00
2023-03-26T03:02:11.357Z,1.00
2023-03-26T03:03:15.443Z,0.00
2023-03-26T03:04:19.412Z,0.00
2023-03-26T03:05:23.316Z,0.00
2023-03-26T03:06:31.515Z,0.00
2023-03-26T03:07:35.347Z,0.00
2023-03-26T03:08:39.107Z,0.50
2023-03-26T03:09:43.122Z,0.50
2023-03-26T03:10:47.099Z,0.50
2023-03-26T03:11:50.798Z,0.00
2023-03-26T03:12:54.822Z,0.00
2023-03-26T03:13:58.810Z,0.50
2023-03-26T03:15:02.898Z,1.50
2023-03-26T03:16:07.107Z,2.00
2023-03-26T03:17:11.003Z,1.80
2023-03-26T03:18:14.906Z,0.00
2023-03-26T03:19:18.804Z,0.25
2023-03-26T03:20:22.416Z,0.50
2023-03-26T03:21:26.210Z,1.00
2023-03-26T03:22:31.600Z,1.00
2023-03-26T03:23:35.435Z,1.00
2023-03-26T03:24:39.627Z,0.50
2023-03-26T03:25:43.530Z,1.00
2023-03-26T03:26:47.694Z,0.00
2023-03-26T03:27:51.842Z,0.50
2023-03-26T03:28:56.244Z,0.00
2023-03-26T03:30:00.278Z,0.50
2023-03-26T03:31:04.287Z,1.00
2023-03-26T03:32:08.558Z,0.25
2023-03-26T03:33:12.579Z,0.00
2023-03-26T03:34:16.364Z,0.75
2023-03-26T03:35:20.264Z,1.00
2023-03-26T03:36:24.476Z,0.00
2023-03-26T03:37:28.462Z,0.50
2023-03-26T03:38:32.584Z,0.50
2023-03-26T03:39:36.566Z,0.00
2023-03-26T03:40:40.471Z,0.75
2023-03-26T03:41:44.597Z,0.75
2023-03-26T03:42:48.793Z,0.50
2023-03-26T03:43:52.779Z,0.00
2023-03-26T03:44:56.677Z,0.00
2023-03-26T03:46:00.490Z,1.00
2023-03-26T03:47:04.495Z,0.75
2023-03-26T03:48:09.582Z,0.75
2023-03-26T03:49:13.506Z,0.00
2023-03-26T03:50:17.419Z,0.00
2023-03-26T03:51:21.301Z,1.25
2023-03-26T03:52:25.095Z,1.50
2023-03-26T03:53:29.206Z,1.00
2023-03-26T03:54:32.990Z,0.75
2023-03-26T03:55:36.792Z,0.00
2023-03-26T03:56:40.617Z,1.00
2023-03-26T03:57:44.280Z,0.25
2023-03-26T03:58:48.304Z,0.50
2023-03-26T03:59:51.976Z,1.00
2023-03-26T04:00:59.561Z,1.00
2023-03-26T04:02:03.464Z,1.00
2023-03-26T04:03:07.813Z,0.50
2023-03-26T04:04:12.071Z,0.50
2023-03-26T04:05:19.841Z,0.25
2023-03-26T04:06:23.174Z,0.75
2023-03-26T04:07:26.943Z,0.50
2023-03-26T04:08:31.053Z,0.50
2023-03-26T04:09:35.469Z,0.50
2023-03-26T04:10:39.772Z,0.75
2023-03-26T04:11:43.561Z,0.25
2023-03-26T04:12:47.360Z,0.00
2023-03-26T04:13:51.256Z,0.00
2023-03-26T04:14:56.281Z,0.50
2023-03-26T04:16:00.230Z,1.50
2023-03-26T04:17:03.983Z,1.50
2023-03-26T04:18:07.904Z,0.50
2023-03-26T04:19:12.079Z,2.00
2023-03-26T04:20:16.385Z,1.50
2023-03-26T04:21:20.395Z,0.75
2023-03-26T04:22:24.199Z,1.00
2023-03-26T04:23:28.089Z,0.50
2023-03-26T04:24:31.864Z,0.00
2023-03-26T04:25:35.781Z,1.00
2023-03-26T04:26:39.586Z,1.00
2023-03-26T04:27:43.574Z,0.50
2023-03-26T04:28:47.368Z,0.00
2023-03-26T04:29:53.002Z,0.00
2023-03-26T04:30:57.014Z,0.00
2023-03-26T04:32:00.710Z,0.25
2023-03-26T04:33:04.466Z,0.50
2023-03-26T04:34:08.710Z,0.00
2023-03-26T04:35:12.389Z,0.00
2023-03-26T04:36:17.718Z,0.00
2023-03-26T04:37:22.766Z,0.75
2023-03-26T04:38:26.764Z,1.00
2023-03-26T04:39:30.561Z,0.50
2023-03-26T04:40:39.384Z,0.50
2023-03-26T04:41:43.478Z,1.00
2023-03-26T04:42:48.819Z,0.00
2023-03-26T04:43:52.616Z,0.50
2023-03-26T04:44:56.376Z,0.50
2023-03-26T04:46:00.202Z,0.50
2023-03-26T04:47:03.999Z,0.00
2023-03-26T04:48:08.328Z,1.00
2023-03-26T04:49:14.641Z,1.50
2023-03-26T04:50:18.765Z,0.50
2023-03-26T04:51:22.762Z,0.00
2023-03-26T04:52:27.096Z,0.50
2023-03-26T04:53:31.294Z,0.50
2023-03-26T04:54:35.276Z,1.00
2023-03-26T04:55:46.852Z,0.50
2023-03-26T04:56:52.909Z,0.50
2023-03-26T04:57:56.805Z,1.00
2023-03-26T04:59:01.018Z,0.50
2023-03-26T05:00:05.319Z,1.00
2023-03-26T05:01:09.625Z,0.00
2023-03-26T05:02:14.650Z,0.50
2023-03-26T05:03:18.864Z,0.25
2023-03-26T05:04:22.807Z,0.00
2023-03-26T05:05:26.968Z,1.00
2023-03-26T05:06:31.082Z,1.00
2023-03-26T05:07:35.386Z,0.50
2023-03-26T05:08:39.372Z,0.50
2023-03-26T05:09:43.548Z,1.50
2023-03-26T05:10:47.577Z,2.00
2023-03-26T05:11:51.688Z,0.50
2023-03-26T05:13:05.142Z,1.00
2023-03-26T05:14:09.106Z,0.00
2023-03-26T05:15:13.217Z,0.67
2023-03-26T05:16:17.569Z,1.00
2023-03-26T05:17:21.748Z,1.50
2023-03-26T05:18:25.685Z,0.50
2023-03-26T05:19:29.618Z,0.50
2023-03-26T05:20:38.753Z,0.25
2023-03-26T05:21:42.551Z,0.00
2023-03-26T05:22:46.342Z,2.00
2023-03-26T05:23:50.251Z,2.50
2023-03-26T05:24:54.134Z,0.50
2023-03-26T05:25:58.240Z,1.00
2023-03-26T05:27:02.034Z,1.00
2023-03-26T05:28:05.824Z,0.00
2023-03-26T05:29:09.728Z,1.00
2023-03-26T05:30:13.521Z,0.50
2023-03-26T05:31:17.526Z,0.50
2023-03-26T05:32:21.223Z,1.50
2023-03-26T05:33:25.093Z,1.50
2023-03-26T05:34:29.014Z,0.50
2023-03-26T05:35:32.935Z,1.00
2023-03-26T05:36:36.920Z,1.00
2023-03-26T05:37:40.820Z,1.50
2023-03-26T05:38:46.318Z,2.00
2023-03-26T05:39:50.355Z,1.50
2023-03-26T05:40:59.459Z,0.75
2023-03-26T05:42:03.345Z,1.50
2023-03-26T05:43:07.374Z,1.00
2023-03-26T05:44:11.173Z,1.50
2023-03-26T05:45:15.013Z,0.50
2023-03-26T05:46:25.233Z,0.00
2023-03-26T05:47:29.564Z,0.50
2023-03-26T05:48:37.005Z,1.25
2023-03-26T05:49:44.290Z,0.50
2023-03-26T05:50:48.284Z,1.25
2023-03-26T05:51:54.333Z,0.50
2023-03-26T05:52:57.725Z,0.50
2023-03-26T05:54:05.520Z,0.50
2023-03-26T05:55:09.608Z,1.00
2023-03-26T05:56:13.820Z,0.00
2023-03-26T05:57:18.133Z,0.75
2023-03-26T05:58:22.056Z,0.50
2023-03-26T05:59:25.927Z,0.50
2023-03-26T06:00:29.730Z,1.00
2023-03-26T06:01:33.525Z,1.00
2023-03-26T06:02:37.333Z,1.25
2023-03-26T06:03:41.068Z,1.25
2023-03-26T06:04:45.068Z,1.00
2023-03-26T06:05:49.115Z,1.00
2023-03-26T06:06:52.911Z,1.00
2023-03-26T06:07:56.758Z,0.50
2023-03-26T06:09:02.838Z,0.00
2023-03-26T06:10:06.963Z,0.00
2023-03-26T06:11:10.864Z,0.00
2023-03-26T06:12:14.865Z,0.00
2023-03-26T06:13:19.276Z,0.50
2023-03-26T06:14:23.373Z,0.00
2023-03-26T06:15:28.525Z,0.50
2023-03-26T06:16:32.491Z,1.00
2023-03-26T06:17:36.741Z,1.00
2023-03-26T06:18:40.932Z,1.00
2023-03-26T06:19:45.324Z,1.00
2023-03-26T06:20:49.550Z,1.00
2023-03-26T06:21:53.688Z,0.50
2023-03-26T06:22:58.167Z,0.50
2023-03-26T06:24:02.560Z,1.00
2023-03-26T06:25:09.942Z,1.00
2023-03-26T06:26:14.047Z,0.50
2023-03-26T06:27:18.350Z,0.50
2023-03-26T06:28:22.665Z,1.00
2023-03-26T06:29:35.160Z,1.00
2023-03-26T06:30:40.677Z,2.25
2023-03-26T06:31:44.206Z,1.00
2023-03-26T06:32:48.324Z,0.50
2023-03-26T06:33:52.813Z,1.25
2023-03-26T06:34:58.288Z,1.00
2023-03-26T06:36:02.386Z,1.00
2023-03-26T06:37:06.772Z,0.50
2023-03-26T06:38:10.956Z,0.50
2023-03-26T06:39:15.062Z,0.50
2023-03-26T06:40:19.378Z,0.50
2023-03-26T06:41:23.490Z,1.00
2023-03-26T06:43:06.474Z,0.50
2023-03-26T06:43:32.611Z,0.50
2023-03-26T06:44:36.909Z,2.00
2023-03-26T06:45:41.842Z,0.50
2023-03-26T06:46:45.749Z,1.50
2023-03-26T06:47:49.554Z,2.50
2023-03-26T06:48:56.759Z,1.00
2023-03-26T06:50:00.503Z,1.75
2023-03-26T06:51:06.325Z,1.50
2023-03-26T06:52:12.512Z,1.00
2023-03-26T06:53:16.602Z,2.50
2023-03-26T06:54:20.802Z,3.00
2023-03-26T06:55:24.806Z,2.00
2023-03-26T06:56:28.909Z,1.50
2023-03-26T06:57:33.117Z,2.50
2023-03-26T06:58:37.229Z,3.00
2023-03-26T06:59:41.332Z,2.00
2023-03-26T07:00:45.359Z,1.50
2023-03-26T07:01:49.425Z,2.00
2023-03-26T07:02:55.130Z,0.50
2023-03-26T07:04:00.005Z,1.50
2023-03-26T07:05:04.624Z,1.50
2023-03-26T07:06:08.709Z,2.00
2023-03-26T07:07:12.607Z,1.00
2023-03-26T07:08:16.825Z,1.00
2023-03-26T07:09:20.931Z,1.00
2023-03-26T07:10:24.927Z,0.50
2023-03-26T07:11:28.617Z,0.50
2023-03-26T07:12:32.928Z,0.00
2023-03-26T07:13:37.025Z,0.50
2023-03-26T07:14:41.031Z,1.50
2023-03-26T07:15:45.241Z,1.75
2023-03-26T07:16:50.797Z,1.25
2023-03-26T07:18:58.789Z,1.00
2023-03-26T07:20:02.774Z,1.00
2023-03-26T07:21:06.980Z,1.50
2023-03-26T07:22:10.980Z,2.50
2023-03-26T07:23:15.189Z,1.75
2023-03-26T07:24:19.295Z,2.00
2023-03-26T07:25:23.289Z,2.50
2023-03-26T07:26:27.419Z,1.50
2023-03-26T07:27:31.401Z,0.00
2023-03-26T07:28:35.621Z,0.50
2023-03-26T07:29:39.806Z,2.00
2023-03-26T07:30:44.123Z,2.00
2023-03-26T07:31:49.950Z,1.00
2023-03-26T07:32:53.828Z,0.50
2023-03-26T07:33:57.760Z,1.00
2023-03-26T07:35:02.082Z,1.00
2023-03-26T07:36:06.276Z,1.50
2023-03-26T07:37:10.070Z,1.50
2023-03-26T07:38:13.968Z,0.75
2023-03-26T07:39:17.969Z,1.50
2023-03-26T07:40:21.663Z,0.00
2023-03-26T07:41:25.457Z,0.50
2023-03-26T07:42:30.181Z,0.50
2023-03-26T07:43:35.510Z,1.00
2023-03-26T07:44:39.005Z,1.00
2023-03-26T07:45:42.812Z,1.50
2023-03-26T07:46:46.709Z,1.50
2023-03-26T07:47:50.648Z,2.00
2023-03-26T07:48:54.584Z,1.50
2023-03-26T07:49:59.668Z,1.50
2023-03-26T07:51:03.420Z,1.50
2023-03-26T07:52:07.418Z,3.25
2023-03-26T07:53:11.727Z,3.50
2023-03-26T07:54:15.614Z,2.50
2023-03-26T07:55:19.320Z,0.50
2023-03-26T07:56:25.516Z,0.50
2023-03-26T07:57:29.433Z,1.00
2023-03-26T07:58:33.363Z,1.25
2023-03-26T07:59:37.262Z,1.00
2023-03-26T08:00:41.060Z,2.50
2023-03-26T08:01:44.722Z,2.75
2023-03-26T08:02:50.209Z,2.50
2023-03-26T08:03:57.016Z,0.50
2023-03-26T08:05:00.425Z,0.50
2023-03-26T08:06:04.535Z,1.00
2023-03-26T08:07:10.501Z,1.75
2023-03-26T08:08:14.087Z,1.25
2023-03-26T08:09:21.559Z,1.25
2023-03-26T08:10:25.504Z,1.25
2023-03-26T08:11:29.560Z,1.50
2023-03-26T08:12:33.779Z,2.50
2023-03-26T08:13:37.687Z,2.25
2023-03-26T08:14:41.671Z,2.00
2023-03-26T08:15:47.701Z,3.75
2023-03-26T08:16:51.730Z,2.75
2023-03-26T08:17:55.630Z,2.25
2023-03-26T08:18:59.735Z,3.00
2023-03-26T08:20:04.044Z,2.50
2023-03-26T08:21:08.139Z,2.00
2023-03-26T08:22:11.838Z,1.00
2023-03-26T08:23:15.839Z,2.50
2023-03-26T08:24:19.945Z,5.00
2023-03-26T08:25:24.040Z,5.25
2023-03-26T08:26:28.650Z,2.00
2023-03-26T08:27:33.078Z,2.00
2023-03-26T08:28:37.295Z,2.00
2023-03-26T08:29:41.271Z,1.75
2023-03-26T08:30:45.503Z,1.50
2023-03-26T08:31:49.714Z,1.25
2023-03-26T08:32:53.914Z,1.50
2023-03-26T08:33:57.990Z,1.50
2023-03-26T08:35:02.427Z,3.25
2023-03-26T08:36:07.242Z,3.75
2023-03-26T08:37:11.332Z,2.75
2023-03-26T08:38:15.531Z,3.00
2023-03-26T08:39:19.758Z,0.75
2023-03-26T08:40:24.343Z,2.00
2023-03-26T08:41:28.261Z,2.25
2023-03-26T08:42:34.493Z,2.00
2023-03-26T08:43:38.416Z,2.25
2023-03-26T08:44:42.234Z,4.00
2023-03-26T08:45:45.911Z,3.00
2023-03-26T08:46:50.214Z,2.00
2023-03-26T08:47:54.082Z,1.50
2023-03-26T08:48:58.819Z,2.25
2023-03-26T08:50:02.744Z,3.00
2023-03-26T08:51:07.652Z,2.00
2023-03-26T08:52:11.347Z,0.50
2023-03-26T08:53:15.742Z,1.75
2023-03-26T08:54:19.545Z,0.75
2023-03-26T08:55:23.857Z,1.50
2023-03-26T08:56:27.858Z,2.00
2023-03-26T08:57:31.928Z,2.00
2023-03-26T08:58:36.266Z,2.50
2023-03-26T08:59:40.378Z,2.00
2023-03-26T09:00:44.471Z,1.50
2023-03-26T09:01:48.620Z,1.75
2023-03-26T09:02:52.816Z,0.75
2023-03-26T09:03:57.179Z,2.00
2023-03-26T09:05:01.091Z,2.00
2023-03-26T09:06:05.242Z,2.50
2023-03-26T09:07:09.935Z,2.00
2023-03-26T09:08:14.019Z,1.00
2023-03-26T09:09:18.927Z,1.00
2023-03-26T09:10:23.360Z,0.50
2023-03-26T09:11:27.782Z,1.00
2023-03-26T09:12:32.102Z,2.50
2023-03-26T09:13:36.171Z,2.00
2023-03-26T09:14:40.498Z,1.75
2023-03-26T09:15:44.806Z,1.00
2023-03-26T09:16:49.114Z,1.00
2023-03-26T09:17:57.874Z,0.75
2023-03-26T09:19:02.424Z,2.75
2023-03-26T09:20:06.635Z,1.00
2023-03-26T09:21:10.849Z,0.75
2023-03-26T09:22:15.453Z,3.00
2023-03-26T09:23:19.869Z,3.50
2023-03-26T09:24:24.286Z,3.00
2023-03-26T09:25:29.001Z,4.00
2023-03-26T09:26:38.068Z,2.25
2023-03-26T09:27:42.927Z,1.00
2023-03-26T09:28:47.850Z,1.00
2023-03-26T09:29:53.051Z,1.00
2023-03-26T09:30:57.374Z,2.00
2023-03-26T09:32:01.400Z,1.50
2023-03-26T09:33:05.914Z,1.00
2023-03-26T09:34:10.120Z,1.50
2023-03-26T09:35:14.226Z,1.75
2023-03-26T09:36:18.226Z,1.50
2023-03-26T09:37:22.448Z,1.25
2023-03-26T09:38:27.249Z,1.75
2023-03-26T09:39:32.280Z,2.50
2023-03-26T09:40:36.878Z,2.00
2023-03-26T09:41:41.497Z,2.50
2023-03-26T09:42:45.426Z,3.00
2023-03-26T09:43:55.672Z,2.00
2023-03-26T09:44:59.448Z,1.50
2023-03-26T09:46:03.751Z,1.75
2023-03-26T09:47:07.564Z,1.75
2023-03-26T09:48:11.564Z,1.00
2023-03-26T09:49:15.657Z,2.50
2023-03-26T09:50:19.771Z,1.75
2023-03-26T09:51:26.763Z,0.00
2023-03-26T09:52:36.164Z,0.50
2023-03-26T09:53:40.372Z,1.00
2023-03-26T09:54:45.297Z,0.50
2023-03-26T09:55:50.415Z,1.50
2023-03-26T09:56:55.263Z,2.00
2023-03-26T09:58:00.079Z,1.50
2023-03-26T09:59:04.967Z,2.50
2023-03-26T10:00:09.816Z,1.50
2023-03-26T10:01:14.528Z,0.50
2023-03-26T10:02:18.931Z,0.25
2023-03-26T10:03:24.729Z,1.50
2023-03-26T10:04:28.832Z,2.00
2023-03-26T10:05:33.488Z,1.50
2023-03-26T10:06:38.004Z,2.00
2023-03-26T10:07:42.194Z,1.00
2023-03-26T10:08:46.402Z,0.50
2023-03-26T10:09:51.343Z,1.50
2023-03-26T10:10:56.504Z,1.50
2023-03-26T10:12:01.373Z,1.25
2023-03-26T10:13:14.070Z,2.25
2023-03-26T10:14:11.320Z,1.25
2023-03-26T10:15:16.266Z,1.00
2023-03-26T10:16:20.587Z,1.00
2023-03-26T10:17:25.185Z,1.25
2023-03-26T10:18:29.943Z,1.25
2023-03-26T10:19:35.022Z,1.50
2023-03-26T10:20:40.439Z,1.75
2023-03-26T10:21:44.673Z,1.25
2023-03-26T10:22:48.564Z,0.50
2023-03-26T10:23:52.473Z,0.50
2023-03-26T10:24:57.183Z,1.00
2023-03-26T10:26:01.903Z,2.00
2023-03-26T10:27:10.376Z,1.50
2023-03-26T10:28:11.336Z,2.00
2023-03-26T10:29:15.135Z,1.50
2023-03-26T10:30:19.149Z,1.00
2023-03-26T10:31:23.303Z,1.00
2023-03-26T10:32:27.298Z,0.50
2023-03-26T10:33:31.854Z,1.00
2023-03-26T10:34:35.751Z,1.25
2023-03-26T10:35:52.189Z,1.25
2023-03-26T10:39:39.790Z,1.00
2023-03-26T10:43:40.209Z,2.00
2023-03-26T10:47:28.625Z,2.00
2023-03-26T10:53:59.766Z,1.75
2023-03-26T11:00:34.734Z,3.00
2023-03-26T11:08:41.281Z,2.50
2023-03-26T11:11:12.782Z,1.00
2023-03-26T11:12:30.112Z,1.00
2023-03-26T11:13:38.366Z,3.00
2023-03-26T11:14:42.506Z,2.00
2023-03-26T11:15:46.525Z,1.00
2023-03-26T11:16:54.530Z,1.50
2023-03-26T11:22:00.204Z,2.50
2023-03-26T11:24:44.912Z,2.75
2023-03-26T11:27:16.889Z,2.00
2023-03-26T11:28:23.814Z,0.50
2023-03-26T11:32:10.401Z,2.00
2023-03-26T11:35:59.769Z,2.50
2023-03-26T11:37:08.672Z,2.00
2023-03-26T11:38:16.574Z,1.50
2023-03-26T11:39:25.731Z,1.50
2023-03-26T11:40:31.446Z,1.50
2023-03-26T11:45:51.274Z,1.25
2023-03-26T11:46:56.525Z,0.50
2023-03-26T11:48:01.319Z,1.00
2023-03-26T11:49:16.782Z,2.00
2023-03-26T11:50:30.022Z,1.50
2023-03-26T11:51:45.859Z,0.50
2023-03-26T11:52:54.559Z,1.00
2023-03-26T11:54:10.653Z,1.50
2023-03-26T11:59:21.690Z,2.50
2023-03-26T12:01:47.019Z,1.00
2023-03-26T12:03:02.373Z,1.00
2023-03-26T12:05:37.224Z,1.00
2023-03-26T12:06:45.620Z,0.25
2023-03-26T12:09:16.478Z,0.00
2023-03-26T12:10:23.386Z,1.50
2023-03-26T12:11:30.330Z,1.00
2023-03-26T12:12:38.207Z,0.50
2023-03-26T12:15:03.329Z,0.50
2023-03-26T12:16:07.459Z,1.50
2023-03-26T12:17:19.648Z,2.25
2023-03-26T12:18:26.022Z,1.00
2023-03-26T12:19:42.508Z,1.00
2023-03-26T12:20:47.392Z,1.00
2023-03-26T12:21:51.401Z,1.25
2023-03-26T12:24:17.629Z,1.50
2023-03-26T12:26:50.307Z,1.00
2023-03-26T12:27:54.710Z,2.50
2023-03-26T12:29:11.588Z,1.50
2023-03-26T12:30:25.254Z,1.00
2023-03-26T12:32:57.131Z,2.00
2023-03-26T12:35:35.952Z,1.00
2023-03-26T12:36:41.065Z,1.25
2023-03-26T12:39:16.761Z,2.00
2023-03-26T12:44:43.318Z,2.00
2023-03-26T12:44:55.429Z,2.00
2023-03-26T12:47:56.670Z,2.50
2023-03-26T12:47:57.024Z,1.00
2023-03-26T12:48:30.251Z,1.50
2023-03-26T12:49:38.973Z,2.50
2023-03-26T12:50:52.506Z,1.50
2023-03-26T12:52:08.260Z,2.00
2023-03-26T12:53:29.608Z,0.50
2023-03-26T12:54:36.910Z,0.75
2023-03-26T12:55:46.235Z,1.50
2023-03-26T12:57:12.265Z,1.00
2023-03-26T12:57:58.629Z,1.75
2023-03-26T12:59:10.013Z,2.50
2023-03-26T13:00:18.405Z,0.50
2023-03-26T13:01:26.219Z,1.00
2023-03-26T13:02:32.476Z,1.50
2023-03-26T13:03:47.973Z,1.00
2023-03-26T13:05:04.403Z,1.25
2023-03-26T13:07:18.669Z,3.00
2023-03-26T13:08:23.257Z,1.50
2023-03-26T13:09:27.266Z,1.50
2023-03-26T13:10:31.590Z,1.50
2023-03-26T13:11:36.898Z,2.00
2023-03-26T13:12:41.234Z,1.75
2023-03-26T13:13:45.740Z,1.00
2023-03-26T13:14:50.341Z,1.00
2023-03-26T13:15:59.387Z,0.00
2023-03-26T13:17:06.174Z,1.00
2023-03-26T13:18:14.440Z,1.75
2023-03-26T13:19:19.144Z,1.50
2023-03-26T13:20:23.662Z,1.25
2023-03-26T13:21:28.644Z,0.75
2023-03-26T13:22:38.794Z,1.00
2023-03-26T13:23:42.937Z,1.25
2023-03-26T13:24:47.310Z,0.50
2023-03-26T13:25:51.956Z,1.00
2023-03-26T13:26:56.697Z,2.00
2023-03-26T13:28:01.490Z,1.50
2023-03-26T13:29:06.327Z,1.00
2023-03-26T13:30:11.998Z,2.00
2023-03-26T13:31:25.978Z,1.00
2023-03-26T13:32:33.694Z,0.00
2023-03-26T13:35:09.598Z,1.00
2023-03-26T13:39:08.846Z,1.50
2023-03-26T13:40:20.294Z,1.25
2023-03-26T13:41:24.933Z,2.00
2023-03-26T13:44:02.973Z,1.50
2023-03-26T13:45:08.582Z,2.00
2023-03-26T13:46:13.431Z,1.50
2023-03-26T13:48:38.718Z,1.25
2023-03-26T13:51:11.765Z,2.00
2023-03-26T13:52:18.990Z,2.00
2023-03-26T13:53:26.430Z,2.00
2023-03-26T13:54:30.668Z,1.00
2023-03-26T13:55:48.092Z,2.00
2023-03-26T13:56:53.036Z,1.50
2023-03-26T13:58:01.194Z,1.00
2023-03-26T13:59:05.520Z,0.50
2023-03-26T14:00:21.812Z,0.50
2023-03-26T14:01:26.022Z,0.00
2023-03-26T14:04:01.031Z,0.50
2023-03-26T14:06:28.412Z,1.50
2023-03-26T14:10:26.058Z,1.50
2023-03-26T14:13:02.057Z,1.00
2023-03-26T14:14:11.881Z,0.00
2023-03-26T14:15:21.907Z,0.50
2023-03-26T14:18:01.478Z,2.00
2023-03-26T14:19:19.794Z,1.50
2023-03-26T14:20:40.696Z,1.00
2023-03-26T14:23:05.683Z,0.50
2023-03-26T14:28:23.554Z,3.50
2023-03-26T14:32:24.238Z,0.50
2023-03-26T14:34:57.273Z,1.50
2023-03-26T14:36:09.152Z,2.50
2023-03-26T14:38:45.638Z,1.50
2023-03-26T14:39:50.056Z,1.00
2023-03-26T14:42:23.508Z,1.25
2023-03-26T14:46:18.171Z,1.50
2023-03-26T14:47:22.876Z,3.00
2023-03-26T14:48:36.012Z,1.00
2023-03-26T14:51:02.536Z,1.50
2023-03-26T14:52:10.056Z,0.50
2023-03-26T14:53:19.722Z,1.00
2023-03-26T14:55:56.113Z,1.50
2023-03-26T14:58:34.207Z,1.00
2023-03-26T15:02:27.410Z,1.50
2023-03-26T15:03:38.412Z,1.75
2023-03-26T15:06:09.582Z,0.50
2023-03-26T15:10:09.219Z,1.00
2023-03-26T15:20:44.618Z,2.00
2023-03-26T15:22:03.564Z,1.75
2023-03-26T15:24:30.940Z,1.00
2023-03-26T15:28:28.215Z,1.00
2023-03-26T15:32:18.003Z,1.00
2023-03-26T15:33:29.105Z,0.50
2023-03-26T15:34:33.265Z,1.00
2023-03-26T15:35:38.610Z,1.50
2023-03-26T15:36:51.491Z,1.50
2023-03-26T15:38:06.678Z,1.00
2023-03-26T15:39:14.351Z,0.50
2023-03-26T15:40:23.355Z,0.75
2023-03-26T15:41:38.184Z,2.00
2023-03-26T15:44:23.876Z,3.00
2023-03-26T15:45:15.633Z,1.00
2023-03-26T15:46:20.142Z,1.50
2023-03-26T15:47:29.074Z,0.75
2023-03-26T15:48:33.343Z,1.50
2023-03-26T15:49:41.546Z,1.00
2023-03-26T15:50:49.746Z,1.00
2023-03-26T15:52:02.282Z,1.00
2023-03-26T15:53:12.592Z,2.00
2023-03-26T15:54:20.335Z,1.50
2023-03-26T15:55:28.209Z,1.00
2023-03-26T15:56:33.236Z,1.25
2023-03-26T16:00:30.828Z,0.75
2023-03-26T16:01:37.212Z,1.50
2023-03-26T16:02:57.844Z,1.25
2023-03-26T16:04:15.539Z,0.50
2023-03-26T16:05:20.531Z,1.00
2023-03-26T16:06:36.649Z,1.50
2023-03-26T16:07:42.924Z,1.00
2023-03-26T16:12:57.078Z,1.00
2023-03-26T16:14:03.737Z,1.50
2023-03-26T16:15:10.262Z,1.50
2023-03-26T16:16:23.461Z,2.00
2023-03-26T16:18:56.212Z,0.75
2023-03-26T16:21:32.025Z,0.75
2023-03-26T16:25:27.821Z,1.50
2023-03-26T16:27:47.043Z,1.25
2023-03-26T16:28:54.632Z,1.00
2023-03-26T16:30:08.463Z,1.25
2023-03-26T16:31:36.627Z,0.25
2023-03-26T16:32:27.512Z,2.25
2023-03-26T16:33:32.039Z,0.75
2023-03-26T16:34:47.937Z,1.50
2023-03-26T16:36:00.759Z,2.00
2023-03-26T16:37:05.342Z,2.25
2023-03-26T16:38:11.929Z,1.25
2023-03-26T16:39:16.570Z,1.50
2023-03-26T16:40:20.888Z,2.00
2023-03-26T16:41:24.930Z,3.00
2023-03-26T16:43:51.053Z,1.25
2023-03-26T16:44:57.928Z,1.50
2023-03-26T16:47:25.383Z,2.00
2023-03-26T16:48:34.223Z,1.00
2023-03-26T16:49:40.340Z,2.00
2023-03-26T16:50:56.323Z,1.00
2023-03-26T16:52:01.671Z,2.00
2023-03-26T16:53:10.957Z,0.75
2023-03-26T16:54:22.046Z,0.75
2023-03-26T16:55:26.499Z,1.00